sensor_id;sensor_type;location;lat;lon;timestamp;P1;durP1;ratioP1;P2;durP2;ratioP2
70981;SDS011;58640;51.320;9.456;2022-08-14T00:00:21;7.20;;;6.03;;
70981;SDS011;58640;51.320;9.456;2022-08-14T00:02:47;6.90;;;6.20;;
70981;SDS011;58640;51.320;9.456;2022-08-14T00:05:14;9.95;;;6.63;;
70981;SDS011;58640;51.320;9.456;2022-08-14T00:07:42;6.70;;;6.07;;
70981;SDS011;58640;51.320;9.456;2022-08-14T00:10:09;16.08;;;6.85;;
70981;SDS011;58640;51.320;9.456;2022-08-14T00:12:39;6.47;;;5.80;;
70981;SDS011;58640;51.320;9.456;2022-08-14T00:15:10;11.75;;;5.70;;
70981;SDS011;58640;51.320;9.456;2022-08-14T00:17:35;6.35;;;5.72;;
70981;SDS011;58640;51.320;9.456;2022-08-14T00:20:02;8.25;;;6.13;;
70981;SDS011;58640;51.320;9.456;2022-08-14T00:22:28;7.35;;;6.63;;
70981;SDS011;58640;51.320;9.456;2022-08-14T00:24:53;6.53;;;5.80;;
70981;SDS011;58640;51.320;9.456;2022-08-14T00:27:19;8.68;;;6.40;;
70981;SDS011;58640;51.320;9.456;2022-08-14T00:29:44;7.22;;;6.50;;
70981;SDS011;58640;51.320;9.456;2022-08-14T00:32:09;8.40;;;6.05;;
70981;SDS011;58640;51.320;9.456;2022-08-14T00:34:36;8.52;;;6.60;;
70981;SDS011;58640;51.320;9.456;2022-08-14T00:37:01;7.55;;;6.38;;
70981;SDS011;58640;51.320;9.456;2022-08-14T00:39:27;13.85;;;6.97;;
70981;SDS011;58640;51.320;9.456;2022-08-14T00:41:53;7.00;;;6.30;;
70981;SDS011;58640;51.320;9.456;2022-08-14T00:44:18;6.00;;;5.40;;
70981;SDS011;58640;51.320;9.456;2022-08-14T00:46:44;9.80;;;6.40;;
70981;SDS011;58640;51.320;9.456;2022-08-14T00:49:09;10.38;;;6.55;;
70981;SDS011;58640;51.320;9.456;2022-08-14T00:51:36;7.43;;;5.65;;
70981;SDS011;58640;51.320;9.456;2022-08-14T00:54:02;7.13;;;6.43;;
70981;SDS011;58640;51.320;9.456;2022-08-14T00:56:28;9.40;;;5.97;;
70981;SDS011;58640;51.320;9.456;2022-08-14T00:58:54;7.18;;;5.97;;
70981;SDS011;58640;51.320;9.456;2022-08-14T01:01:20;6.28;;;5.68;;
70981;SDS011;58640;51.320;9.456;2022-08-14T01:03:45;13.77;;;5.57;;
70981;SDS011;58640;51.320;9.456;2022-08-14T01:06:11;6.60;;;5.75;;
70981;SDS011;58640;51.320;9.456;2022-08-14T01:08:40;7.70;;;6.05;;
70981;SDS011;58640;51.320;9.456;2022-08-14T01:11:08;7.15;;;5.68;;
70981;SDS011;58640;51.320;9.456;2022-08-14T01:13:36;8.05;;;6.05;;
70981;SDS011;58640;51.320;9.456;2022-08-14T01:16:05;7.97;;;6.53;;
70981;SDS011;58640;51.320;9.456;2022-08-14T01:18:32;7.75;;;6.57;;
70981;SDS011;58640;51.320;9.456;2022-08-14T01:21:50;10.30;;;6.70;;
70981;SDS011;58640;51.320;9.456;2022-08-14T01:24:10;7.65;;;6.07;;
70981;SDS011;58640;51.320;9.456;2022-08-14T01:26:39;9.50;;;6.43;;
70981;SDS011;58640;51.320;9.456;2022-08-14T01:29:06;8.55;;;6.00;;
70981;SDS011;58640;51.320;9.456;2022-08-14T01:31:33;9.52;;;6.20;;
70981;SDS011;58640;51.320;9.456;2022-08-14T01:34:20;7.65;;;6.38;;
70981;SDS011;58640;51.320;9.456;2022-08-14T01:36:50;7.18;;;6.47;;
70981;SDS011;58640;51.320;9.456;2022-08-14T01:39:17;10.35;;;6.75;;
70981;SDS011;58640;51.320;9.456;2022-08-14T01:41:44;7.28;;;6.57;;
70981;SDS011;58640;51.320;9.456;2022-08-14T01:44:14;9.63;;;6.47;;
70981;SDS011;58640;51.320;9.456;2022-08-14T01:46:40;8.18;;;6.93;;
70981;SDS011;58640;51.320;9.456;2022-08-14T01:49:09;9.27;;;7.43;;
70981;SDS011;58640;51.320;9.456;2022-08-14T01:51:36;11.80;;;7.10;;
70981;SDS011;58640;51.320;9.456;2022-08-14T01:54:13;12.18;;;7.40;;
70981;SDS011;58640;51.320;9.456;2022-08-14T01:56:47;8.68;;;7.53;;
70981;SDS011;58640;51.320;9.456;2022-08-14T01:59:22;7.82;;;6.78;;
70981;SDS011;58640;51.320;9.456;2022-08-14T02:01:53;8.50;;;6.43;;
70981;SDS011;58640;51.320;9.456;2022-08-14T02:04:21;7.95;;;6.65;;
70981;SDS011;58640;51.320;9.456;2022-08-14T02:06:48;7.20;;;6.50;;
70981;SDS011;58640;51.320;9.456;2022-08-14T02:09:15;9.80;;;6.90;;
70981;SDS011;58640;51.320;9.456;2022-08-14T02:11:41;8.23;;;6.93;;
70981;SDS011;58640;51.320;9.456;2022-08-14T02:14:08;8.70;;;6.72;;
70981;SDS011;58640;51.320;9.456;2022-08-14T02:16:36;7.63;;;6.50;;
70981;SDS011;58640;51.320;9.456;2022-08-14T02:19:13;7.45;;;6.60;;
70981;SDS011;58640;51.320;9.456;2022-08-14T02:21:44;8.50;;;6.90;;
70981;SDS011;58640;51.320;9.456;2022-08-14T02:24:12;10.05;;;6.78;;
70981;SDS011;58640;51.320;9.456;2022-08-14T02:26:39;7.03;;;6.13;;
70981;SDS011;58640;51.320;9.456;2022-08-14T02:29:07;7.22;;;6.53;;
70981;SDS011;58640;51.320;9.456;2022-08-14T02:31:35;9.23;;;6.50;;
70981;SDS011;58640;51.320;9.456;2022-08-14T02:34:04;7.85;;;6.30;;
70981;SDS011;58640;51.320;9.456;2022-08-14T02:36:32;8.23;;;6.57;;
70981;SDS011;58640;51.320;9.456;2022-08-14T02:38:57;7.15;;;6.43;;
70981;SDS011;58640;51.320;9.456;2022-08-14T02:41:23;9.82;;;6.38;;
70981;SDS011;58640;51.320;9.456;2022-08-14T02:43:49;7.22;;;6.45;;
70981;SDS011;58640;51.320;9.456;2022-08-14T02:46:14;10.77;;;6.70;;
70981;SDS011;58640;51.320;9.456;2022-08-14T02:48:41;6.70;;;5.90;;
70981;SDS011;58640;51.320;9.456;2022-08-14T02:51:11;7.25;;;6.40;;
70981;SDS011;58640;51.320;9.456;2022-08-14T02:53:38;7.07;;;6.43;;
70981;SDS011;58640;51.320;9.456;2022-08-14T02:56:06;10.38;;;6.43;;
70981;SDS011;58640;51.320;9.456;2022-08-14T02:58:34;7.20;;;6.45;;
70981;SDS011;58640;51.320;9.456;2022-08-14T03:01:03;9.70;;;6.72;;
70981;SDS011;58640;51.320;9.456;2022-08-14T03:03:29;10.82;;;6.60;;
70981;SDS011;58640;51.320;9.456;2022-08-14T03:05:55;6.93;;;6.10;;
70981;SDS011;58640;51.320;9.456;2022-08-14T03:08:20;8.48;;;5.93;;
70981;SDS011;58640;51.320;9.456;2022-08-14T03:10:46;6.78;;;6.07;;
70981;SDS011;58640;51.320;9.456;2022-08-14T03:13:12;8.55;;;6.28;;
70981;SDS011;58640;51.320;9.456;2022-08-14T03:15:38;6.35;;;5.72;;
70981;SDS011;58640;51.320;9.456;2022-08-14T03:18:08;7.97;;;6.38;;
70981;SDS011;58640;51.320;9.456;2022-08-14T03:20:35;9.30;;;6.43;;
70981;SDS011;58640;51.320;9.456;2022-08-14T03:23:00;7.75;;;6.20;;
70981;SDS011;58640;51.320;9.456;2022-08-14T03:25:26;11.63;;;6.50;;
70981;SDS011;58640;51.320;9.456;2022-08-14T03:27:55;7.40;;;6.47;;
70981;SDS011;58640;51.320;9.456;2022-08-14T03:30:20;8.20;;;6.00;;
70981;SDS011;58640;51.320;9.456;2022-08-14T03:32:46;7.18;;;6.47;;
70981;SDS011;58640;51.320;9.456;2022-08-14T03:35:11;7.32;;;6.53;;
70981;SDS011;58640;51.320;9.456;2022-08-14T03:37:36;9.02;;;7.22;;
70981;SDS011;58640;51.320;9.456;2022-08-14T03:40:02;7.55;;;6.53;;
70981;SDS011;58640;51.320;9.456;2022-08-14T03:42:30;6.72;;;6.03;;
70981;SDS011;58640;51.320;9.456;2022-08-14T03:44:55;7.78;;;6.65;;
70981;SDS011;58640;51.320;9.456;2022-08-14T03:47:21;7.38;;;6.57;;
70981;SDS011;58640;51.320;9.456;2022-08-14T03:49:47;7.07;;;6.38;;
70981;SDS011;58640;51.320;9.456;2022-08-14T03:52:12;6.35;;;5.75;;
70981;SDS011;58640;51.320;9.456;2022-08-14T03:54:38;6.32;;;5.70;;
70981;SDS011;58640;51.320;9.456;2022-08-14T03:57:03;7.25;;;6.05;;
70981;SDS011;58640;51.320;9.456;2022-08-14T03:59:30;6.95;;;6.25;;
70981;SDS011;58640;51.320;9.456;2022-08-14T04:01:56;8.32;;;6.43;;
70981;SDS011;58640;51.320;9.456;2022-08-14T04:04:21;7.93;;;7.00;;
70981;SDS011;58640;51.320;9.456;2022-08-14T04:06:46;8.45;;;6.57;;
70981;SDS011;58640;51.320;9.456;2022-08-14T04:09:13;7.53;;;6.43;;
70981;SDS011;58640;51.320;9.456;2022-08-14T04:11:38;7.00;;;6.30;;
70981;SDS011;58640;51.320;9.456;2022-08-14T04:14:04;8.82;;;6.55;;
70981;SDS011;58640;51.320;9.456;2022-08-14T04:16:30;10.13;;;6.97;;
70981;SDS011;58640;51.320;9.456;2022-08-14T04:18:56;8.45;;;6.97;;
70981;SDS011;58640;51.320;9.456;2022-08-14T04:21:25;7.53;;;6.72;;
70981;SDS011;58640;51.320;9.456;2022-08-14T04:23:53;9.38;;;7.10;;
70981;SDS011;58640;51.320;9.456;2022-08-14T04:26:22;9.45;;;7.05;;
70981;SDS011;58640;51.320;9.456;2022-08-14T04:28:49;10.63;;;6.80;;
70981;SDS011;58640;51.320;9.456;2022-08-14T04:31:15;8.90;;;6.88;;
70981;SDS011;58640;51.320;9.456;2022-08-14T04:33:41;10.57;;;6.85;;
70981;SDS011;58640;51.320;9.456;2022-08-14T04:36:07;8.50;;;6.93;;
70981;SDS011;58640;51.320;9.456;2022-08-14T04:38:33;12.85;;;7.20;;
70981;SDS011;58640;51.320;9.456;2022-08-14T04:41:17;7.43;;;6.47;;
70981;SDS011;58640;51.320;9.456;2022-08-14T04:44:18;9.27;;;6.80;;
70981;SDS011;58640;51.320;9.456;2022-08-14T04:46:44;10.20;;;6.72;;
70981;SDS011;58640;51.320;9.456;2022-08-14T04:49:30;7.95;;;6.22;;
70981;SDS011;58640;51.320;9.456;2022-08-14T04:51:55;11.73;;;6.70;;
70981;SDS011;58640;51.320;9.456;2022-08-14T04:54:21;10.20;;;6.88;;
70981;SDS011;58640;51.320;9.456;2022-08-14T04:56:51;10.13;;;6.88;;
70981;SDS011;58640;51.320;9.456;2022-08-14T04:59:18;9.00;;;6.53;;
70981;SDS011;58640;51.320;9.456;2022-08-14T05:01:43;11.37;;;7.13;;
70981;SDS011;58640;51.320;9.456;2022-08-14T05:04:09;7.82;;;7.03;;
70981;SDS011;58640;51.320;9.456;2022-08-14T05:06:36;9.60;;;7.38;;
70981;SDS011;58640;51.320;9.456;2022-08-14T05:09:02;8.35;;;6.35;;
70981;SDS011;58640;51.320;9.456;2022-08-14T05:11:28;7.70;;;6.90;;
70981;SDS011;58640;51.320;9.456;2022-08-14T05:13:57;8.60;;;7.20;;
70981;SDS011;58640;51.320;9.456;2022-08-14T05:16:25;7.45;;;6.57;;
70981;SDS011;58640;51.320;9.456;2022-08-14T05:18:53;7.72;;;6.88;;
70981;SDS011;58640;51.320;9.456;2022-08-14T05:21:19;10.25;;;7.63;;
70981;SDS011;58640;51.320;9.456;2022-08-14T05:23:45;7.05;;;6.43;;
70981;SDS011;58640;51.320;9.456;2022-08-14T05:26:11;7.80;;;7.03;;
70981;SDS011;58640;51.320;9.456;2022-08-14T05:28:41;9.82;;;6.55;;
70981;SDS011;58640;51.320;9.456;2022-08-14T05:31:09;8.57;;;6.65;;
70981;SDS011;58640;51.320;9.456;2022-08-14T05:33:41;9.97;;;7.53;;
70981;SDS011;58640;51.320;9.456;2022-08-14T05:36:08;8.98;;;7.18;;
70981;SDS011;58640;51.320;9.456;2022-08-14T05:38:37;9.60;;;7.18;;
70981;SDS011;58640;51.320;9.456;2022-08-14T05:41:14;8.55;;;7.13;;
70981;SDS011;58640;51.320;9.456;2022-08-14T05:43:41;8.60;;;7.78;;
70981;SDS011;58640;51.320;9.456;2022-08-14T05:46:11;10.32;;;6.55;;
70981;SDS011;58640;51.320;9.456;2022-08-14T05:48:38;10.75;;;7.15;;
70981;SDS011;58640;51.320;9.456;2022-08-14T05:51:03;9.33;;;7.70;;
70981;SDS011;58640;51.320;9.456;2022-08-14T05:53:29;7.45;;;6.82;;
70981;SDS011;58640;51.320;9.456;2022-08-14T05:55:55;10.52;;;6.47;;
70981;SDS011;58640;51.320;9.456;2022-08-14T05:58:21;7.55;;;6.85;;
70981;SDS011;58640;51.320;9.456;2022-08-14T06:00:47;13.55;;;8.02;;
70981;SDS011;58640;51.320;9.456;2022-08-14T06:03:17;9.48;;;6.50;;
70981;SDS011;58640;51.320;9.456;2022-08-14T06:05:45;8.32;;;7.43;;
70981;SDS011;58640;51.320;9.456;2022-08-14T06:08:13;7.15;;;6.45;;
70981;SDS011;58640;51.320;9.456;2022-08-14T06:10:43;8.05;;;6.22;;
70981;SDS011;58640;51.320;9.456;2022-08-14T06:13:09;7.45;;;6.13;;
70981;SDS011;58640;51.320;9.456;2022-08-14T06:15:34;6.85;;;6.15;;
70981;SDS011;58640;51.320;9.456;2022-08-14T06:18:00;8.70;;;6.32;;
70981;SDS011;58640;51.320;9.456;2022-08-14T06:20:26;10.55;;;6.90;;
70981;SDS011;58640;51.320;9.456;2022-08-14T06:22:52;6.72;;;6.03;;
70981;SDS011;58640;51.320;9.456;2022-08-14T06:25:17;8.80;;;6.28;;
70981;SDS011;58640;51.320;9.456;2022-08-14T06:27:44;6.00;;;5.40;;
70981;SDS011;58640;51.320;9.456;2022-08-14T06:30:12;7.45;;;5.30;;
70981;SDS011;58640;51.320;9.456;2022-08-14T06:32:40;7.95;;;5.90;;
70981;SDS011;58640;51.320;9.456;2022-08-14T06:35:06;6.90;;;5.40;;
70981;SDS011;58640;51.320;9.456;2022-08-14T06:37:39;10.23;;;6.55;;
70981;SDS011;58640;51.320;9.456;2022-08-14T06:40:05;6.30;;;5.70;;
70981;SDS011;58640;51.320;9.456;2022-08-14T06:42:32;8.55;;;5.63;;
70981;SDS011;58640;51.320;9.456;2022-08-14T06:44:57;6.65;;;5.95;;
70981;SDS011;58640;51.320;9.456;2022-08-14T06:47:25;7.50;;;6.68;;
70981;SDS011;58640;51.320;9.456;2022-08-14T06:49:51;16.05;;;6.35;;
70981;SDS011;58640;51.320;9.456;2022-08-14T06:52:16;6.30;;;5.65;;
70981;SDS011;58640;51.320;9.456;2022-08-14T06:54:42;7.65;;;5.85;;
70981;SDS011;58640;51.320;9.456;2022-08-14T06:57:08;8.77;;;6.22;;
70981;SDS011;58640;51.320;9.456;2022-08-14T06:59:33;11.60;;;6.22;;
70981;SDS011;58640;51.320;9.456;2022-08-14T07:01:58;7.22;;;6.22;;
70981;SDS011;58640;51.320;9.456;2022-08-14T07:04:42;8.20;;;6.13;;
70981;SDS011;58640;51.320;9.456;2022-08-14T07:07:34;6.00;;;5.40;;
70981;SDS011;58640;51.320;9.456;2022-08-14T07:10:01;8.73;;;5.88;;
70981;SDS011;58640;51.320;9.456;2022-08-14T07:12:28;7.13;;;6.00;;
70981;SDS011;58640;51.320;9.456;2022-08-14T07:14:54;7.22;;;5.78;;
70981;SDS011;58640;51.320;9.456;2022-08-14T07:17:19;8.32;;;6.10;;
70981;SDS011;58640;51.320;9.456;2022-08-14T07:19:44;5.68;;;5.18;;
70981;SDS011;58640;51.320;9.456;2022-08-14T07:22:10;7.10;;;5.50;;
70981;SDS011;58640;51.320;9.456;2022-08-14T07:24:35;6.57;;;5.97;;
70981;SDS011;58640;51.320;9.456;2022-08-14T07:27:00;8.38;;;5.95;;
70981;SDS011;58640;51.320;9.456;2022-08-14T07:29:26;8.30;;;5.80;;
70981;SDS011;58640;51.320;9.456;2022-08-14T07:31:52;7.32;;;5.68;;
70981;SDS011;58640;51.320;9.456;2022-08-14T07:34:17;6.43;;;5.82;;
70981;SDS011;58640;51.320;9.456;2022-08-14T07:36:43;6.93;;;6.22;;
70981;SDS011;58640;51.320;9.456;2022-08-14T07:39:08;5.93;;;5.40;;
70981;SDS011;58640;51.320;9.456;2022-08-14T07:41:34;6.97;;;6.07;;
70981;SDS011;58640;51.320;9.456;2022-08-14T07:43:59;7.60;;;5.22;;
70981;SDS011;58640;51.320;9.456;2022-08-14T07:46:25;8.02;;;5.72;;
70981;SDS011;58640;51.320;9.456;2022-08-14T07:48:50;6.75;;;5.50;;
70981;SDS011;58640;51.320;9.456;2022-08-14T07:51:17;8.73;;;5.53;;
70981;SDS011;58640;51.320;9.456;2022-08-14T07:53:43;6.75;;;5.85;;
70981;SDS011;58640;51.320;9.456;2022-08-14T07:56:09;6.55;;;5.88;;
70981;SDS011;58640;51.320;9.456;2022-08-14T07:58:34;9.50;;;5.97;;
70981;SDS011;58640;51.320;9.456;2022-08-14T08:01:02;5.70;;;5.10;;
70981;SDS011;58640;51.320;9.456;2022-08-14T08:03:29;5.82;;;5.28;;
70981;SDS011;58640;51.320;9.456;2022-08-14T08:05:58;6.50;;;5.90;;
70981;SDS011;58640;51.320;9.456;2022-08-14T08:08:24;7.47;;;6.47;;
70981;SDS011;58640;51.320;9.456;2022-08-14T08:10:52;7.60;;;6.07;;
70981;SDS011;58640;51.320;9.456;2022-08-14T08:13:20;6.93;;;5.82;;
70981;SDS011;58640;51.320;9.456;2022-08-14T08:15:46;7.45;;;5.53;;
70981;SDS011;58640;51.320;9.456;2022-08-14T08:18:20;6.78;;;5.45;;
70981;SDS011;58640;51.320;9.456;2022-08-14T08:20:48;6.15;;;5.50;;
70981;SDS011;58640;51.320;9.456;2022-08-14T08:23:15;7.68;;;5.72;;
70981;SDS011;58640;51.320;9.456;2022-08-14T08:25:43;5.78;;;4.97;;
70981;SDS011;58640;51.320;9.456;2022-08-14T08:28:12;6.47;;;5.18;;
70981;SDS011;58640;51.320;9.456;2022-08-14T08:30:41;5.85;;;5.25;;
70981;SDS011;58640;51.320;9.456;2022-08-14T08:33:11;9.07;;;5.63;;
70981;SDS011;58640;51.320;9.456;2022-08-14T08:35:37;5.75;;;5.10;;
70981;SDS011;58640;51.320;9.456;2022-08-14T08:38:06;8.80;;;5.25;;
70981;SDS011;58640;51.320;9.456;2022-08-14T08:40:36;6.18;;;4.95;;
70981;SDS011;58640;51.320;9.456;2022-08-14T08:43:06;8.02;;;5.53;;
70981;SDS011;58640;51.320;9.456;2022-08-14T08:45:33;8.93;;;5.10;;
70981;SDS011;58640;51.320;9.456;2022-08-14T08:48:00;5.90;;;5.30;;
70981;SDS011;58640;51.320;9.456;2022-08-14T08:50:28;5.57;;;5.03;;
70981;SDS011;58640;51.320;9.456;2022-08-14T08:53:04;7.43;;;5.60;;
70981;SDS011;58640;51.320;9.456;2022-08-14T08:55:32;7.20;;;5.22;;
70981;SDS011;58640;51.320;9.456;2022-08-14T08:58:08;8.38;;;5.28;;
70981;SDS011;58640;51.320;9.456;2022-08-14T09:00:37;6.40;;;5.38;;
70981;SDS011;58640;51.320;9.456;2022-08-14T09:03:10;5.57;;;5.05;;
70981;SDS011;58640;51.320;9.456;2022-08-14T09:05:37;7.80;;;5.18;;
70981;SDS011;58640;51.320;9.456;2022-08-14T09:08:19;6.13;;;5.28;;
70981;SDS011;58640;51.320;9.456;2022-08-14T09:10:53;6.32;;;5.20;;
70981;SDS011;58640;51.320;9.456;2022-08-14T09:13:19;6.10;;;4.53;;
70981;SDS011;58640;51.320;9.456;2022-08-14T09:15:47;5.35;;;4.78;;
70981;SDS011;58640;51.320;9.456;2022-08-14T09:18:14;5.40;;;4.85;;
70981;SDS011;58640;51.320;9.456;2022-08-14T09:20:47;5.18;;;4.68;;
70981;SDS011;58640;51.320;9.456;2022-08-14T09:23:14;5.30;;;4.80;;
70981;SDS011;58640;51.320;9.456;2022-08-14T09:25:40;5.95;;;5.45;;
70981;SDS011;58640;51.320;9.456;2022-08-14T09:28:08;6.80;;;5.05;;
70981;SDS011;58640;51.320;9.456;2022-08-14T09:30:35;4.70;;;4.30;;
70981;SDS011;58640;51.320;9.456;2022-08-14T09:41:32;5.10;;;4.63;;
70981;SDS011;58640;51.320;9.456;2022-08-14T09:46:54;5.22;;;4.72;;
70981;SDS011;58640;51.320;9.456;2022-08-14T09:49:30;6.10;;;4.70;;
70981;SDS011;58640;51.320;9.456;2022-08-14T09:52:15;6.47;;;4.93;;
70981;SDS011;58640;51.320;9.456;2022-08-14T09:54:42;5.25;;;4.47;;
70981;SDS011;58640;51.320;9.456;2022-08-14T09:57:09;5.28;;;4.78;;
70981;SDS011;58640;51.320;9.456;2022-08-14T10:02:50;4.53;;;4.13;;
70981;SDS011;58640;51.320;9.456;2022-08-14T10:07:34;4.80;;;4.30;;
70981;SDS011;58640;51.320;9.456;2022-08-14T10:10:01;8.38;;;4.80;;
70981;SDS011;58640;51.320;9.456;2022-08-14T10:12:49;5.82;;;4.63;;
70981;SDS011;58640;51.320;9.456;2022-08-14T10:15:20;4.93;;;4.50;;
70981;SDS011;58640;51.320;9.456;2022-08-14T10:17:49;4.88;;;4.47;;
70981;SDS011;58640;51.320;9.456;2022-08-14T10:20:36;5.28;;;4.88;;
70981;SDS011;58640;51.320;9.456;2022-08-14T10:23:16;4.80;;;4.40;;
70981;SDS011;58640;51.320;9.456;2022-08-14T10:25:47;6.90;;;5.30;;
70981;SDS011;58640;51.320;9.456;2022-08-14T10:28:14;6.55;;;4.60;;
70981;SDS011;58640;51.320;9.456;2022-08-14T10:30:42;5.75;;;4.80;;
70981;SDS011;58640;51.320;9.456;2022-08-14T10:33:22;5.70;;;5.20;;
70981;SDS011;58640;51.320;9.456;2022-08-14T10:35:51;5.45;;;4.95;;
70981;SDS011;58640;51.320;9.456;2022-08-14T10:38:26;6.40;;;4.07;;
70981;SDS011;58640;51.320;9.456;2022-08-14T10:41:07;4.65;;;4.18;;
70981;SDS011;58640;51.320;9.456;2022-08-14T10:43:36;5.13;;;4.72;;
70981;SDS011;58640;51.320;9.456;2022-08-14T10:46:10;5.65;;;4.88;;
70981;SDS011;58640;51.320;9.456;2022-08-14T10:48:39;4.80;;;4.40;;
70981;SDS011;58640;51.320;9.456;2022-08-14T10:51:05;6.93;;;4.82;;
70981;SDS011;58640;51.320;9.456;2022-08-14T10:53:31;6.85;;;4.65;;
70981;SDS011;58640;51.320;9.456;2022-08-14T10:55:59;6.15;;;5.22;;
70981;SDS011;58640;51.320;9.456;2022-08-14T10:58:28;5.80;;;4.80;;
70981;SDS011;58640;51.320;9.456;2022-08-14T11:00:57;5.63;;;5.03;;
70981;SDS011;58640;51.320;9.456;2022-08-14T11:03:35;8.10;;;5.22;;
70981;SDS011;58640;51.320;9.456;2022-08-14T11:06:12;5.63;;;5.10;;
70981;SDS011;58640;51.320;9.456;2022-08-14T11:08:43;5.47;;;4.97;;
70981;SDS011;58640;51.320;9.456;2022-08-14T11:11:09;5.70;;;5.18;;
70981;SDS011;58640;51.320;9.456;2022-08-14T11:13:34;5.85;;;5.28;;
70981;SDS011;58640;51.320;9.456;2022-08-14T11:16:02;6.45;;;5.10;;
70981;SDS011;58640;51.320;9.456;2022-08-14T11:18:28;7.25;;;5.40;;
70981;SDS011;58640;51.320;9.456;2022-08-14T11:20:55;4.82;;;4.43;;
70981;SDS011;58640;51.320;9.456;2022-08-14T11:23:30;5.30;;;4.80;;
70981;SDS011;58640;51.320;9.456;2022-08-14T11:25:58;5.00;;;4.60;;
70981;SDS011;58640;51.320;9.456;2022-08-14T11:28:25;5.45;;;4.95;;
70981;SDS011;58640;51.320;9.456;2022-08-14T11:30:53;5.82;;;5.28;;
70981;SDS011;58640;51.320;9.456;2022-08-14T11:33:22;5.15;;;4.45;;
70981;SDS011;58640;51.320;9.456;2022-08-14T11:35:49;5.00;;;4.53;;
70981;SDS011;58640;51.320;9.456;2022-08-14T11:38:15;6.05;;;4.88;;
70981;SDS011;58640;51.320;9.456;2022-08-14T11:40:45;5.03;;;4.60;;
70981;SDS011;58640;51.320;9.456;2022-08-14T11:43:11;6.00;;;4.75;;
70981;SDS011;58640;51.320;9.456;2022-08-14T11:45:37;5.40;;;4.95;;
70981;SDS011;58640;51.320;9.456;2022-08-14T11:50:43;5.25;;;4.75;;
70981;SDS011;58640;51.320;9.456;2022-08-14T11:53:19;5.65;;;5.13;;
70981;SDS011;58640;51.320;9.456;2022-08-14T11:55:59;5.95;;;5.22;;
70981;SDS011;58640;51.320;9.456;2022-08-14T11:58:27;7.40;;;5.50;;
70981;SDS011;58640;51.320;9.456;2022-08-14T12:00:56;6.10;;;5.05;;
70981;SDS011;58640;51.320;9.456;2022-08-14T12:03:43;7.10;;;4.97;;
70981;SDS011;58640;51.320;9.456;2022-08-14T12:06:15;7.28;;;4.88;;
70981;SDS011;58640;51.320;9.456;2022-08-14T12:08:42;5.53;;;5.00;;
70981;SDS011;58640;51.320;9.456;2022-08-14T12:11:08;6.65;;;5.35;;
70981;SDS011;58640;51.320;9.456;2022-08-14T12:13:37;8.13;;;5.05;;
70981;SDS011;58640;51.320;9.456;2022-08-14T12:16:05;5.50;;;5.00;;
70981;SDS011;58640;51.320;9.456;2022-08-14T12:18:36;5.53;;;4.93;;
70981;SDS011;58640;51.320;9.456;2022-08-14T12:21:21;5.70;;;5.10;;
70981;SDS011;58640;51.320;9.456;2022-08-14T12:24:02;7.50;;;5.32;;
70981;SDS011;58640;51.320;9.456;2022-08-14T12:26:32;5.47;;;4.97;;
70981;SDS011;58640;51.320;9.456;2022-08-14T12:29:14;8.10;;;5.00;;
70981;SDS011;58640;51.320;9.456;2022-08-14T12:31:41;6.05;;;5.20;;
70981;SDS011;58640;51.320;9.456;2022-08-14T12:34:08;5.88;;;5.30;;
70981;SDS011;58640;51.320;9.456;2022-08-14T12:36:37;6.00;;;5.22;;
70981;SDS011;58640;51.320;9.456;2022-08-14T12:39:03;5.75;;;5.15;;
70981;SDS011;58640;51.320;9.456;2022-08-14T12:41:47;7.13;;;5.63;;
70981;SDS011;58640;51.320;9.456;2022-08-14T12:44:16;7.45;;;5.10;;
70981;SDS011;58640;51.320;9.456;2022-08-14T12:47:00;6.38;;;5.80;;
70981;SDS011;58640;51.320;9.456;2022-08-14T12:49:31;6.47;;;5.25;;
70981;SDS011;58640;51.320;9.456;2022-08-14T12:51:59;5.65;;;5.05;;
70981;SDS011;58640;51.320;9.456;2022-08-14T12:54:26;7.43;;;5.43;;
70981;SDS011;58640;51.320;9.456;2022-08-14T12:57:01;7.85;;;5.68;;
70981;SDS011;58640;51.320;9.456;2022-08-14T12:59:28;6.45;;;5.13;;
70981;SDS011;58640;51.320;9.456;2022-08-14T13:01:57;5.68;;;5.15;;
70981;SDS011;58640;51.320;9.456;2022-08-14T13:04:22;5.22;;;4.72;;
70981;SDS011;58640;51.320;9.456;2022-08-14T13:06:48;5.65;;;5.15;;
70981;SDS011;58640;51.320;9.456;2022-08-14T13:09:14;5.72;;;5.15;;
70981;SDS011;58640;51.320;9.456;2022-08-14T13:11:41;5.47;;;4.95;;
70981;SDS011;58640;51.320;9.456;2022-08-14T13:14:12;6.53;;;5.90;;
70981;SDS011;58640;51.320;9.456;2022-08-14T13:16:40;6.05;;;5.18;;
70981;SDS011;58640;51.320;9.456;2022-08-14T13:19:07;12.95;;;5.50;;
70981;SDS011;58640;51.320;9.456;2022-08-14T13:21:37;8.98;;;5.22;;
70981;SDS011;58640;51.320;9.456;2022-08-14T13:24:03;8.57;;;6.07;;
70981;SDS011;58640;51.320;9.456;2022-08-14T13:26:29;6.43;;;5.20;;
70981;SDS011;58640;51.320;9.456;2022-08-14T13:28:57;7.22;;;5.55;;
70981;SDS011;58640;51.320;9.456;2022-08-14T13:31:25;5.95;;;5.35;;
70981;SDS011;58640;51.320;9.456;2022-08-14T13:33:54;9.52;;;5.35;;
70981;SDS011;58640;51.320;9.456;2022-08-14T13:36:20;5.88;;;5.38;;
70981;SDS011;58640;51.320;9.456;2022-08-14T13:38:46;6.88;;;5.32;;
70981;SDS011;58640;51.320;9.456;2022-08-14T13:41:13;6.10;;;5.53;;
70981;SDS011;58640;51.320;9.456;2022-08-14T13:43:41;6.80;;;5.82;;
70981;SDS011;58640;51.320;9.456;2022-08-14T13:46:07;7.28;;;5.55;;
70981;SDS011;58640;51.320;9.456;2022-08-14T13:48:34;10.38;;;5.72;;
70981;SDS011;58640;51.320;9.456;2022-08-14T13:50:59;6.28;;;5.35;;
70981;SDS011;58640;51.320;9.456;2022-08-14T13:53:28;6.43;;;5.82;;
70981;SDS011;58640;51.320;9.456;2022-08-14T13:55:57;8.65;;;6.25;;
70981;SDS011;58640;51.320;9.456;2022-08-14T13:58:24;6.18;;;5.57;;
70981;SDS011;58640;51.320;9.456;2022-08-14T14:00:50;6.70;;;5.93;;
70981;SDS011;58640;51.320;9.456;2022-08-14T14:03:21;6.95;;;5.68;;
70981;SDS011;58640;51.320;9.456;2022-08-14T14:05:51;6.55;;;5.80;;
70981;SDS011;58640;51.320;9.456;2022-08-14T14:08:19;9.70;;;6.57;;
70981;SDS011;58640;51.320;9.456;2022-08-14T14:10:46;9.02;;;6.00;;
70981;SDS011;58640;51.320;9.456;2022-08-14T14:13:13;6.25;;;5.63;;
70981;SDS011;58640;51.320;9.456;2022-08-14T14:15:41;8.85;;;6.22;;
70981;SDS011;58640;51.320;9.456;2022-08-14T14:18:07;9.10;;;6.15;;
70981;SDS011;58640;51.320;9.456;2022-08-14T14:20:32;6.22;;;5.70;;
70981;SDS011;58640;51.320;9.456;2022-08-14T14:22:58;6.10;;;5.50;;
70981;SDS011;58640;51.320;9.456;2022-08-14T14:25:24;6.05;;;5.30;;
70981;SDS011;58640;51.320;9.456;2022-08-14T14:27:50;6.05;;;5.45;;
70981;SDS011;58640;51.320;9.456;2022-08-14T14:30:15;8.73;;;6.00;;
70981;SDS011;58640;51.320;9.456;2022-08-14T14:32:43;6.60;;;5.78;;
70981;SDS011;58640;51.320;9.456;2022-08-14T14:35:10;6.82;;;5.63;;
70981;SDS011;58640;51.320;9.456;2022-08-14T14:37:39;6.80;;;5.20;;
70981;SDS011;58640;51.320;9.456;2022-08-14T14:40:06;8.75;;;5.30;;
70981;SDS011;58640;51.320;9.456;2022-08-14T14:42:32;7.18;;;5.43;;
70981;SDS011;58640;51.320;9.456;2022-08-14T14:45:11;8.55;;;6.05;;
70981;SDS011;58640;51.320;9.456;2022-08-14T14:47:42;6.25;;;5.55;;
70981;SDS011;58640;51.320;9.456;2022-08-14T14:50:09;6.78;;;5.57;;
70981;SDS011;58640;51.320;9.456;2022-08-14T14:52:36;6.15;;;5.47;;
70981;SDS011;58640;51.320;9.456;2022-08-14T14:55:02;6.72;;;4.97;;
70981;SDS011;58640;51.320;9.456;2022-08-14T14:57:30;11.05;;;5.38;;
70981;SDS011;58640;51.320;9.456;2022-08-14T14:59:56;5.25;;;4.75;;
70981;SDS011;58640;51.320;9.456;2022-08-14T15:02:54;5.85;;;5.25;;
70981;SDS011;58640;51.320;9.456;2022-08-14T15:05:15;8.40;;;5.10;;
70981;SDS011;58640;51.320;9.456;2022-08-14T15:07:41;5.47;;;4.97;;
70981;SDS011;58640;51.320;9.456;2022-08-14T15:10:09;6.53;;;4.75;;
70981;SDS011;58640;51.320;9.456;2022-08-14T15:12:35;5.28;;;4.68;;